createdAt,value
2019-04-16T00:00:55.472Z,7.91
2019-04-16T00:03:24.809Z,7.89
2019-04-16T00:05:58.634Z,7.80
2019-04-16T00:08:28.415Z,7.75
2019-04-16T00:11:02.383Z,7.71
2019-04-16T00:13:33.341Z,7.69
2019-04-16T00:16:04.305Z,7.63
2019-04-16T00:18:33.671Z,7.54
2019-04-16T00:21:06.406Z,7.51
2019-04-16T00:23:54.557Z,7.54
2019-04-16T00:26:26.812Z,7.50
2019-04-16T00:28:55.167Z,7.33
2019-04-16T00:31:24.674Z,7.34
2019-04-16T00:33:54.064Z,7.29
2019-04-16T00:36:23.426Z,7.22
2019-04-16T00:38:54.671Z,7.14
2019-04-16T00:41:23.985Z,7.16
2019-04-16T00:43:53.273Z,7.12
2019-04-16T00:46:23.014Z,7.10
2019-04-16T00:48:52.313Z,7.17
2019-04-16T00:51:21.707Z,7.02
2019-04-16T00:53:51.059Z,7.08
2019-04-16T00:56:20.588Z,7.05
2019-04-16T00:58:52.146Z,7.01
2019-04-16T01:01:21.060Z,6.94
2019-04-16T01:03:50.457Z,6.93
2019-04-16T01:06:19.714Z,6.86
2019-04-16T01:08:54.842Z,6.85
2019-04-16T01:11:21.077Z,6.86
2019-04-16T01:13:50.383Z,6.80
2019-04-16T01:16:19.794Z,6.77
2019-04-16T01:18:49.189Z,6.77
2019-04-16T01:21:18.553Z,6.90
2019-04-16T01:23:49.326Z,6.88
2019-04-16T01:26:18.940Z,6.81
2019-04-16T01:29:08.267Z,6.81
2019-04-16T01:31:45.203Z,6.77
2019-04-16T01:34:28.479Z,6.76
2019-04-16T01:36:59.925Z,6.73
2019-04-16T01:39:30.949Z,6.62
2019-04-16T01:42:00.473Z,6.62
2019-04-16T01:44:30.786Z,6.58
2019-04-16T01:47:03.772Z,6.57
2019-04-16T01:49:31.432Z,6.59
2019-04-16T01:52:00.819Z,6.59
2019-04-16T01:54:30.188Z,6.60
2019-04-16T01:57:00.761Z,6.58
2019-04-16T01:59:35.620Z,6.49
2019-04-16T02:02:02.533Z,6.57
2019-04-16T02:04:33.003Z,6.55
2019-04-16T02:07:02.443Z,6.50
2019-04-16T02:09:34.597Z,6.54
2019-04-16T02:12:02.862Z,6.47
2019-04-16T02:14:32.134Z,6.49
2019-04-16T02:17:01.438Z,6.44
2019-04-16T02:19:32.879Z,6.39
2019-04-16T02:22:01.994Z,6.38
2019-04-16T02:24:31.514Z,6.28
2019-04-16T02:27:01.013Z,6.19
2019-04-16T02:29:30.689Z,6.20
2019-04-16T02:32:00.085Z,6.15
2019-04-16T02:34:29.357Z,6.13
2019-04-16T02:37:02.470Z,6.17
2019-04-16T02:39:47.189Z,6.12
2019-04-16T02:42:00.948Z,6.07
2019-04-16T02:44:30.202Z,6.00
2019-04-16T02:47:05.461Z,6.00
2019-04-16T02:49:30.575Z,6.04
2019-04-16T02:52:04.345Z,5.97
2019-04-16T02:54:47.815Z,5.98
2019-04-16T02:57:31.284Z,6.04
2019-04-16T03:00:03.797Z,6.07
2019-04-16T03:02:45.361Z,6.02
2019-04-16T03:05:16.483Z,6.06
2019-04-16T03:07:45.956Z,6.03
2019-04-16T03:10:15.268Z,6.00
2019-04-16T03:12:45.634Z,5.96
2019-04-16T03:15:16.672Z,6.01
2019-04-16T03:17:46.489Z,5.93
2019-04-16T03:20:20.919Z,5.95
2019-04-16T03:22:51.166Z,5.95
2019-04-16T03:25:20.466Z,5.94
2019-04-16T03:27:51.448Z,5.92
2019-04-16T03:30:20.835Z,5.92
2019-04-16T03:32:50.828Z,5.83
2019-04-16T03:35:25.365Z,5.81
2019-04-16T03:37:51.301Z,5.78
2019-04-16T03:40:24.782Z,5.75
2019-04-16T03:42:51.701Z,5.69
2019-04-16T03:45:21.038Z,5.69
2019-04-16T03:47:51.373Z,5.60
2019-04-16T03:50:21.352Z,5.58
2019-04-16T03:52:50.633Z,5.64
2019-04-16T03:55:25.388Z,5.60
2019-04-16T03:57:50.946Z,5.67
2019-04-16T04:00:20.313Z,5.80
2019-04-16T04:02:54.212Z,5.80
2019-04-16T04:05:20.671Z,5.81
2019-04-16T04:07:50.038Z,5.85
2019-04-16T04:10:30.560Z,5.84
2019-04-16T04:12:50.498Z,5.87
2019-04-16T04:15:19.886Z,5.91
2019-04-16T04:17:49.545Z,5.88
2019-04-16T04:20:19.371Z,5.91
2019-04-16T04:22:51.237Z,5.91
2019-04-16T04:25:20.797Z,5.89
2019-04-16T04:27:50.102Z,5.86
2019-04-16T04:30:21.361Z,5.88
2019-04-16T04:32:50.850Z,5.84
2019-04-16T04:35:22.127Z,5.80
2019-04-16T04:37:51.240Z,5.81
2019-04-16T04:40:20.538Z,5.75
2019-04-16T04:42:49.845Z,5.65
2019-04-16T04:45:19.119Z,5.69
2019-04-16T04:47:51.700Z,5.66
2019-04-16T04:50:19.712Z,5.63
2019-04-16T04:52:49.092Z,5.63
2019-04-16T04:55:18.612Z,5.63
2019-04-16T04:57:47.933Z,5.60
2019-04-16T05:00:17.254Z,5.60
2019-04-16T05:02:46.549Z,5.60
2019-04-16T05:05:18.341Z,5.56
2019-04-16T05:07:47.635Z,5.52
2019-04-16T05:10:16.910Z,5.59
2019-04-16T05:12:46.200Z,5.61
2019-04-16T05:15:15.807Z,5.64
2019-04-16T05:17:46.641Z,5.74
2019-04-16T05:20:17.560Z,5.70
2019-04-16T05:22:46.923Z,5.73
2019-04-16T05:25:16.231Z,5.78
2019-04-16T05:27:45.518Z,5.85
2019-04-16T05:30:19.937Z,5.91
2019-04-16T05:32:46.157Z,6.12
2019-04-16T05:35:15.456Z,6.24
2019-04-16T05:37:44.795Z,6.27
2019-04-16T05:40:14.231Z,6.89
2019-04-16T05:42:43.501Z,7.34
2019-04-16T05:45:12.976Z,7.62
2019-04-16T05:47:42.242Z,7.91
2019-04-16T05:50:11.752Z,8.03
2019-04-16T05:52:41.149Z,8.13
2019-04-16T05:55:29.434Z,7.93
2019-04-16T05:57:59.196Z,8.22
2019-04-16T06:00:41.683Z,8.49
2019-04-16T06:03:10.049Z,8.84
2019-04-16T06:05:39.488Z,8.77
2019-04-16T06:08:10.309Z,8.98
2019-04-16T06:10:40.147Z,9.41
2019-04-16T06:13:17.082Z,9.63
2019-04-16T06:15:50.257Z,9.49
2019-04-16T06:18:27.084Z,9.34
2019-04-16T06:21:06.705Z,9.26
2019-04-16T06:23:54.127Z,9.02
2019-04-16T06:26:27.545Z,8.60
2019-04-16T06:29:01.603Z,8.77
2019-04-16T06:31:41.690Z,8.43
2019-04-16T06:34:28.741Z,8.08
2019-04-16T06:37:00.717Z,7.87
2019-04-16T06:39:31.704Z,7.75
2019-04-16T06:42:05.532Z,7.98
2019-04-16T06:44:36.454Z,7.93
2019-04-16T06:47:16.118Z,8.10
2019-04-16T06:49:51.044Z,8.46
2019-04-16T06:52:28.107Z,8.78
2019-04-16T06:55:03.550Z,8.96
2019-04-16T06:57:40.384Z,8.95
2019-04-16T07:00:11.138Z,8.91
2019-04-16T07:03:02.122Z,9.20
2019-04-16T07:05:33.233Z,9.32
2019-04-16T07:08:17.887Z,9.31
2019-04-16T07:11:00.835Z,9.39
2019-04-16T07:13:30.157Z,9.62
2019-04-16T07:15:59.465Z,9.65
2019-04-16T07:18:28.750Z,9.85
2019-04-16T07:20:58.057Z,9.72
2019-04-16T07:23:27.470Z,9.80
2019-04-16T07:25:56.935Z,9.87
2019-04-16T07:28:27.902Z,10.04
2019-04-16T07:31:14.868Z,10.00
2019-04-16T07:33:59.106Z,10.05
2019-04-16T07:36:39.320Z,10.28
2019-04-16T07:39:29.898Z,10.60
2019-04-16T07:42:09.803Z,10.70
2019-04-16T07:44:40.551Z,10.82
2019-04-16T07:47:11.518Z,11.24
2019-04-16T07:49:45.165Z,11.21
2019-04-16T07:52:22.520Z,11.52
2019-04-16T07:55:02.443Z,11.63
2019-04-16T07:57:31.771Z,11.80
2019-04-16T08:00:01.130Z,11.74
2019-04-16T08:02:30.845Z,11.90
2019-04-16T08:05:01.304Z,12.04
2019-04-16T08:07:30.746Z,12.07
2019-04-16T08:10:02.790Z,12.14
2019-04-16T08:12:32.185Z,12.46
2019-04-16T08:15:13.366Z,12.66
2019-04-16T08:17:33.035Z,12.66
2019-04-16T08:20:02.638Z,12.50
2019-04-16T08:22:32.348Z,12.53
2019-04-16T08:25:04.181Z,12.81
2019-04-16T08:27:33.572Z,13.09
2019-04-16T08:30:04.939Z,13.00
2019-04-16T08:32:34.324Z,13.07
2019-04-16T08:35:04.108Z,13.07
2019-04-16T08:37:33.540Z,13.06
2019-04-16T08:40:02.820Z,13.27
2019-04-16T08:42:43.852Z,13.21
2019-04-16T08:45:07.366Z,13.24
2019-04-16T08:47:35.360Z,13.37
2019-04-16T08:50:05.166Z,13.68
2019-04-16T08:52:34.494Z,13.82
2019-04-16T08:55:04.026Z,14.05
2019-04-16T08:57:34.456Z,14.14
2019-04-16T09:00:11.323Z,14.10
2019-04-16T09:02:39.707Z,14.29
2019-04-16T09:05:11.695Z,14.71
2019-04-16T09:07:41.432Z,14.86
2019-04-16T09:10:19.033Z,15.26
2019-04-16T09:13:01.698Z,15.15
2019-04-16T09:15:27.093Z,15.35
2019-04-16T09:17:57.809Z,15.79
2019-04-16T09:20:28.742Z,17.20
2019-04-16T09:22:59.157Z,18.83
2019-04-16T09:25:36.237Z,19.57
2019-04-16T09:28:24.885Z,18.84
2019-04-16T09:30:59.182Z,19.04
2019-04-16T09:33:30.477Z,19.19
2019-04-16T09:36:21.067Z,20.49
2019-04-16T09:38:52.039Z,20.12
2019-04-16T09:41:22.978Z,21.72
2019-04-16T09:43:58.035Z,21.11
2019-04-16T09:46:49.785Z,20.25
2019-04-16T09:48:59.575Z,19.76
2019-04-16T09:51:29.008Z,20.49
2019-04-16T09:53:58.371Z,21.35
2019-04-16T09:56:29.484Z,22.10
2019-04-16T09:59:02.300Z,21.03
2019-04-16T10:01:41.272Z,22.53
2019-04-16T10:04:15.208Z,21.53
2019-04-16T10:06:44.502Z,23.22
2019-04-16T10:09:13.831Z,23.31
2019-04-16T10:11:43.185Z,23.61
2019-04-16T10:14:12.490Z,23.30
2019-04-16T10:16:42.014Z,22.09
2019-04-16T10:19:11.292Z,23.33
2019-04-16T10:21:40.688Z,22.93
2019-04-16T10:24:15.646Z,24.75
2019-04-16T10:26:46.755Z,24.00
2019-04-16T10:29:17.687Z,23.00
2019-04-16T10:31:47.204Z,23.58
2019-04-16T10:34:16.575Z,23.93
2019-04-16T10:36:45.926Z,24.15
2019-04-16T10:39:19.674Z,23.61
2019-04-16T10:41:56.287Z,22.42
2019-04-16T10:44:44.380Z,22.42
2019-04-16T10:47:16.739Z,24.03
2019-04-16T10:49:53.646Z,25.05
2019-04-16T10:52:27.432Z,24.36
2019-04-16T10:54:58.704Z,24.86
2019-04-16T10:57:32.450Z,25.14
2019-04-16T11:00:03.431Z,25.67
2019-04-16T11:02:36.050Z,24.61
2019-04-16T11:05:15.226Z,24.78
2019-04-16T11:07:52.810Z,23.69
2019-04-16T11:10:22.078Z,24.37
2019-04-16T11:12:51.532Z,24.78
2019-04-16T11:15:22.519Z,23.79
2019-04-16T11:17:51.975Z,23.53
2019-04-16T11:20:21.404Z,23.23
2019-04-16T11:22:50.993Z,23.14
2019-04-16T11:25:20.370Z,23.65
2019-04-16T11:27:49.942Z,24.59
2019-04-16T11:30:32.927Z,24.57
2019-04-16T11:33:02.239Z,24.08
2019-04-16T11:35:31.706Z,23.95
2019-04-16T11:38:01.015Z,23.61
2019-04-16T11:40:30.308Z,24.56
2019-04-16T11:42:59.718Z,24.35
2019-04-16T11:45:29.227Z,24.83
2019-04-16T11:47:58.580Z,23.62
2019-04-16T11:50:29.005Z,23.76
2019-04-16T11:52:58.826Z,24.93
2019-04-16T11:55:28.122Z,24.67
2019-04-16T11:57:57.450Z,25.21
2019-04-16T12:00:28.593Z,25.75
2019-04-16T12:03:11.276Z,24.77
2019-04-16T12:05:42.190Z,24.46
2019-04-16T12:08:18.947Z,24.51
2019-04-16T12:10:58.670Z,24.07
2019-04-16T12:13:32.268Z,22.18
2019-04-16T12:16:06.219Z,22.43
2019-04-16T12:18:37.373Z,22.94
2019-04-16T12:21:11.350Z,23.21
2019-04-16T12:23:58.889Z,23.00
2019-04-16T12:26:29.872Z,22.49
2019-04-16T12:29:07.029Z,22.53
2019-04-16T12:31:40.857Z,21.77
2019-04-16T12:34:14.267Z,22.11
2019-04-16T12:37:01.826Z,22.64
2019-04-16T12:39:36.236Z,22.83
2019-04-16T12:42:23.652Z,22.67
2019-04-16T12:45:10.087Z,23.20
2019-04-16T12:47:41.070Z,22.42
2019-04-16T12:50:16.756Z,21.62
2019-04-16T12:53:04.436Z,21.85
2019-04-16T12:55:41.117Z,21.52
2019-04-16T12:58:12.026Z,21.37
2019-04-16T13:00:59.738Z,21.47
2019-04-16T13:03:33.328Z,22.28
2019-04-16T13:06:16.106Z,22.36
2019-04-16T13:08:47.465Z,22.91
2019-04-16T13:11:18.946Z,24.04
2019-04-16T13:13:52.901Z,24.06
2019-04-16T13:16:26.657Z,24.90
2019-04-16T13:19:06.869Z,24.69
2019-04-16T13:21:50.687Z,25.32
2019-04-16T13:24:27.805Z,24.31
2019-04-16T13:26:58.940Z,24.08
2019-04-16T13:29:30.569Z,24.65
2019-04-16T13:32:00.079Z,24.31
2019-04-16T13:34:30.914Z,23.90
2019-04-16T13:37:00.975Z,24.55
2019-04-16T13:39:32.287Z,23.95
2019-04-16T13:42:01.925Z,24.38
2019-04-16T13:44:37.642Z,24.83
2019-04-16T13:47:07.019Z,24.53
2019-04-16T13:49:37.994Z,24.79
2019-04-16T13:52:07.320Z,25.17
2019-04-16T13:54:38.313Z,25.20
2019-04-16T13:57:12.293Z,25.09
2019-04-16T14:00:03.198Z,24.89
2019-04-16T14:02:51.052Z,25.00
2019-04-16T14:05:21.953Z,25.30
2019-04-16T14:07:51.275Z,24.59
2019-04-16T14:10:20.636Z,24.77
2019-04-16T14:12:50.393Z,23.88
2019-04-16T14:15:31.732Z,24.30
2019-04-16T14:17:53.388Z,24.06
2019-04-16T14:20:23.046Z,24.53
2019-04-16T14:22:53.669Z,24.72
2019-04-16T14:25:23.754Z,25.07
2019-04-16T14:27:55.364Z,24.73
2019-04-16T14:30:27.466Z,24.75
2019-04-16T14:32:56.837Z,24.14
2019-04-16T14:35:33.436Z,23.48
2019-04-16T14:38:00.532Z,23.29
2019-04-16T14:40:29.896Z,22.41
2019-04-16T14:42:59.341Z,21.96
2019-04-16T14:45:34.769Z,21.86
2019-04-16T14:48:04.955Z,22.21
2019-04-16T14:50:33.403Z,22.34
2019-04-16T14:53:02.972Z,21.68
2019-04-16T14:55:37.017Z,21.39
2019-04-16T14:58:24.169Z,21.91
2019-04-16T15:00:55.160Z,22.55
2019-04-16T15:03:43.438Z,22.46
2019-04-16T15:06:31.183Z,22.58
2019-04-16T15:09:02.136Z,23.02
2019-04-16T15:11:42.886Z,23.18
2019-04-16T15:14:13.733Z,22.52
2019-04-16T15:16:51.938Z,22.13
2019-04-16T15:19:25.760Z,22.46
2019-04-16T15:21:58.608Z,22.29
2019-04-16T15:24:32.439Z,22.13
2019-04-16T15:27:18.771Z,21.64
2019-04-16T15:29:56.465Z,21.31
2019-04-16T15:32:28.478Z,20.89
2019-04-16T15:34:58.629Z,20.94
2019-04-16T15:37:29.578Z,21.72
2019-04-16T15:40:00.827Z,21.58
2019-04-16T15:42:48.126Z,22.39
2019-04-16T15:45:32.781Z,22.39
2019-04-16T15:48:14.874Z,22.31
2019-04-16T15:50:45.664Z,22.75
2019-04-16T15:53:16.740Z,23.17
2019-04-16T15:55:53.488Z,22.11
2019-04-16T15:58:32.504Z,22.12
2019-04-16T16:01:03.418Z,21.81
2019-04-16T16:03:37.115Z,21.50
2019-04-16T16:06:08.277Z,21.40
2019-04-16T16:08:45.214Z,21.06
2019-04-16T16:11:17.293Z,20.77
2019-04-16T16:13:47.761Z,20.54
2019-04-16T16:16:18.022Z,20.21
2019-04-16T16:18:48.420Z,20.44
2019-04-16T16:21:17.713Z,20.29
2019-04-16T16:23:47.338Z,20.23
2019-04-16T16:26:16.936Z,20.29
2019-04-16T16:28:46.333Z,19.81
2019-04-16T16:31:17.223Z,19.56
2019-04-16T16:33:46.723Z,19.40
2019-04-16T16:36:16.231Z,19.27
2019-04-16T16:38:48.245Z,19.36
2019-04-16T16:41:16.688Z,19.33
2019-04-16T16:43:45.984Z,19.25
2019-04-16T16:46:20.192Z,19.15
2019-04-16T16:48:51.754Z,18.99
2019-04-16T16:51:22.992Z,19.02
2019-04-16T16:54:09.841Z,18.84
2019-04-16T16:56:56.047Z,18.71
2019-04-16T16:59:32.913Z,18.66
2019-04-16T17:02:21.991Z,18.40
2019-04-16T17:04:52.944Z,18.24
2019-04-16T17:07:22.306Z,18.06
2019-04-16T17:09:51.702Z,18.02
2019-04-16T17:12:20.978Z,17.95
2019-04-16T17:14:50.286Z,17.89
2019-04-16T17:17:19.585Z,17.80
2019-04-16T17:19:50.824Z,17.72
2019-04-16T17:22:21.396Z,17.58
2019-04-16T17:24:50.784Z,17.49
2019-04-16T17:27:21.034Z,17.40
2019-04-16T17:29:50.922Z,17.41
2019-04-16T17:32:22.004Z,17.29
2019-04-16T17:34:51.454Z,17.22
2019-04-16T17:37:27.423Z,17.09
2019-04-16T17:39:57.509Z,16.89
2019-04-16T17:42:28.747Z,16.78
2019-04-16T17:45:16.158Z,16.90
2019-04-16T17:48:02.292Z,16.85
2019-04-16T17:50:40.253Z,16.99
2019-04-16T18:00:37.670Z,17.01
2019-04-16T18:03:14.870Z,16.88
2019-04-16T18:05:48.745Z,16.81
2019-04-16T18:08:22.751Z,16.79
2019-04-16T18:10:54.015Z,16.70
2019-04-16T18:13:24.974Z,16.60
2019-04-16T18:15:56.116Z,16.56
2019-04-16T18:18:30.152Z,16.52
2019-04-16T18:21:13.452Z,16.43
2019-04-16T18:24:00.833Z,16.34
2019-04-16T18:26:47.724Z,16.33
2019-04-16T18:29:18.902Z,16.26
2019-04-16T18:31:57.386Z,16.17
2019-04-16T18:34:43.476Z,16.16
2019-04-16T18:37:28.376Z,16.08
2019-04-16T18:40:05.028Z,16.00
2019-04-16T18:42:35.069Z,15.96
2019-04-16T18:45:06.099Z,15.82
2019-04-16T18:47:37.140Z,15.75
2019-04-16T18:50:08.804Z,15.70
2019-04-16T18:52:38.191Z,15.65
2019-04-16T18:55:08.126Z,15.50
2019-04-16T18:57:38.354Z,15.37
2019-04-16T19:00:10.368Z,15.25
2019-04-16T19:02:42.075Z,15.19
2019-04-16T19:05:12.279Z,15.13
2019-04-16T19:07:41.818Z,15.11
2019-04-16T19:10:11.141Z,15.02
2019-04-16T19:12:40.554Z,14.90
2019-04-16T19:15:09.907Z,14.84
2019-04-16T19:17:39.227Z,14.73
2019-04-16T19:20:08.631Z,14.68
2019-04-16T19:22:38.091Z,14.61
2019-04-16T19:25:08.994Z,14.54
2019-04-16T19:27:40.240Z,14.53
2019-04-16T19:30:10.657Z,14.46
2019-04-16T19:32:39.981Z,14.41
2019-04-16T19:35:11.448Z,14.34
2019-04-16T19:37:40.498Z,14.29
2019-04-16T19:40:16.064Z,14.17
2019-04-16T19:42:44.240Z,14.10
2019-04-16T19:45:13.746Z,14.07
2019-04-16T19:47:44.951Z,14.10
2019-04-16T19:50:14.420Z,14.06
2019-04-16T19:52:45.726Z,14.08
2019-04-16T19:55:18.098Z,14.10
2019-04-16T19:57:48.982Z,14.05
2019-04-16T20:00:22.874Z,14.12
2019-04-16T20:02:49.949Z,14.01
2019-04-16T20:05:19.399Z,14.00
2019-04-16T20:07:49.135Z,13.92
2019-04-16T20:10:20.116Z,13.83
2019-04-16T20:12:49.507Z,13.85
2019-04-16T20:15:18.786Z,13.82
2019-04-16T20:17:48.294Z,13.83
2019-04-16T20:20:17.679Z,13.79
2019-04-16T20:22:49.985Z,13.72
2019-04-16T20:25:19.449Z,13.70
2019-04-16T20:27:50.328Z,13.67
2019-04-16T20:30:23.065Z,13.58
2019-04-16T20:32:50.753Z,13.59
2019-04-16T20:35:20.067Z,13.51
2019-04-16T20:37:53.375Z,13.49
2019-04-16T20:40:22.661Z,13.43
2019-04-16T20:42:52.003Z,13.43
2019-04-16T20:45:21.454Z,13.36
2019-04-16T20:47:50.775Z,13.36
2019-04-16T20:50:20.851Z,13.30
2019-04-16T20:52:52.021Z,13.22
2019-04-16T20:55:21.389Z,13.19
2019-04-16T20:57:55.320Z,13.18
2019-04-16T21:00:26.026Z,13.14
2019-04-16T21:02:55.416Z,13.12
2019-04-16T21:05:24.719Z,13.08
2019-04-16T21:07:54.249Z,13.10
2019-04-16T21:10:23.518Z,13.08
2019-04-16T21:12:54.871Z,13.07
2019-04-16T21:15:27.456Z,13.03
2019-04-16T21:17:54.965Z,12.97
2019-04-16T21:20:24.537Z,12.94
2019-04-16T21:22:57.615Z,12.92
2019-04-16T21:25:25.126Z,12.93
2019-04-16T21:27:56.193Z,12.95
2019-04-16T21:30:25.559Z,12.88
2019-04-16T21:32:59.583Z,12.86
2019-04-16T21:35:45.741Z,12.87
2019-04-16T21:38:19.438Z,12.88
2019-04-16T21:40:48.739Z,12.84
2019-04-16T21:43:18.150Z,12.87
2019-04-16T21:45:51.746Z,12.83
2019-04-16T21:48:23.795Z,12.84
2019-04-16T21:50:54.167Z,12.83
2019-04-16T21:53:24.545Z,12.91
2019-04-16T21:55:55.405Z,12.91
2019-04-16T21:58:25.123Z,12.85
2019-04-16T22:00:59.761Z,12.80
2019-04-16T22:03:31.579Z,12.77
2019-04-16T22:06:02.536Z,12.80
2019-04-16T22:08:31.943Z,12.75
2019-04-16T22:11:01.305Z,12.80
2019-04-16T22:13:30.831Z,12.73
2019-04-16T22:16:00.167Z,12.78
2019-04-16T22:18:29.669Z,12.72
2019-04-16T22:20:59.016Z,12.63
2019-04-16T22:23:28.419Z,12.60
2019-04-16T22:26:01.347Z,12.56
2019-04-16T22:28:29.441Z,12.51
2019-04-16T22:30:58.799Z,12.51
2019-04-16T22:33:28.242Z,12.46
2019-04-16T22:35:57.528Z,12.44
2019-04-16T22:38:28.516Z,12.41
2019-04-16T22:40:59.479Z,12.37
2019-04-16T22:43:46.920Z,12.38
2019-04-16T22:46:27.059Z,12.34
2019-04-16T22:48:57.653Z,12.38
2019-04-16T22:51:26.977Z,12.27
2019-04-16T22:53:56.586Z,12.24
2019-04-16T22:56:28.391Z,12.22
2019-04-16T22:58:58.478Z,12.21
2019-04-16T23:01:29.410Z,12.14
2019-04-16T23:03:58.956Z,12.15
2019-04-16T23:06:28.329Z,12.14
2019-04-16T23:08:57.741Z,12.10
2019-04-16T23:11:27.186Z,12.03
2019-04-16T23:13:57.038Z,12.02
2019-04-16T23:16:26.456Z,11.98
2019-04-16T23:18:56.126Z,11.95
2019-04-16T23:21:25.469Z,11.96
2019-04-16T23:23:54.740Z,11.91
2019-04-16T23:26:24.124Z,11.92
2019-04-16T23:28:53.599Z,11.92
2019-04-16T23:31:23.728Z,11.93
2019-04-16T23:33:53.168Z,11.95
2019-04-16T23:36:22.615Z,11.95
2019-04-16T23:38:51.899Z,11.91
2019-04-16T23:41:21.235Z,11.91
2019-04-16T23:43:54.949Z,11.91
2019-04-16T23:46:34.664Z,11.85
2019-04-16T23:49:16.527Z,11.87
2019-04-16T23:51:49.436Z,11.81
2019-04-16T23:54:20.511Z,11.74
2019-04-16T23:56:57.380Z,11.69
2019-04-16T23:59:32.607Z,11.59
